Time;durP1;ratioP1;P1;durP2;ratioP2;P2;SDS_P1;SDS_P2;PMS_P1;PMS_P2;Temp;Humidity;BMP_temperature;BMP_pressure;BME280_temperature;BME280_humidity;BME280_pressure;Samples;Min_cycle;Max_cycle;Signal;HPM_P1;HPM_P2
2021/12/24 00:00:16;;;;;;;4.75;4.35;;;8.60;99.90;;;;;;5017518;28;20715;-83
2021/12/24 00:02:42;;;;;;;4.78;3.10;;;8.60;99.90;;;;;;5017630;28;20234;-83
2021/12/24 00:05:10;;;;;;;5.40;4.90;;;8.60;99.90;;;;;;5017877;28;20218;-82
2021/12/24 00:07:37;;;;;;;3.63;3.20;;;8.60;99.90;;;;;;5018215;28;20668;-82
2021/12/24 00:10:07;;;;;;;4.22;3.83;;;8.70;99.90;;;;;;5017098;28;20195;-82
2021/12/24 00:12:38;;;;;;;8.77;3.90;;;8.70;99.90;;;;;;5015674;28;20256;-83
2021/12/24 00:15:19;;;;;;;3.67;3.38;;;8.70;99.90;;;;;;5028372;28;20195;-83
2021/12/24 00:17:46;;;;;;;3.67;3.38;;;8.70;99.90;;;;;;5022784;28;20270;-83
2021/12/24 00:20:38;;;;;;;3.10;2.90;;;8.80;99.90;;;;;;5023229;28;20601;-83
2021/12/24 00:23:29;;;;;;;3.83;3.50;;;8.70;99.90;;;;;;5035516;28;20577;-83
2021/12/24 00:36:54;;;;;;;3.65;3.35;;;8.70;99.90;;;;;;5015075;28;20246;-83
2021/12/24 00:39:21;;;;;;;3.60;3.30;;;8.70;99.90;;;;;;4999986;28;20219;-83
2021/12/24 00:41:48;;;;;;;3.60;3.30;;;8.70;99.90;;;;;;5009642;28;20229;-82
2021/12/24 00:44:16;;;;;;;3.10;2.80;;;8.80;99.90;;;;;;5013025;28;20225;-83
2021/12/24 00:46:42;;;;;;;5.28;3.90;;;8.70;99.90;;;;;;5014580;28;20258;-83
2021/12/24 00:49:09;;;;;;;5.10;2.97;;;8.70;99.90;;;;;;5013343;28;20723;-83
2021/12/24 00:51:55;;;;;;;3.75;3.47;;;8.70;99.90;;;;;;5005843;28;20206;-83
2021/12/24 00:57:06;;;;;;;3.67;3.25;;;8.80;99.90;;;;;;5012356;28;20327;-82
2021/12/24 00:59:34;;;;;;;4.18;3.60;;;8.80;99.90;;;;;;5014559;28;20763;-82
2021/12/24 01:02:03;;;;;;;2.85;2.65;;;8.80;99.90;;;;;;5008584;28;20246;-83
2021/12/24 01:04:31;;;;;;;3.75;3.55;;;8.90;99.90;;;;;;4998909;28;20207;-82
2021/12/24 01:06:57;;;;;;;3.78;3.20;;;8.90;99.90;;;;;;4995077;28;20239;-82
2021/12/24 01:09:24;;;;;;;4.05;3.75;;;8.90;99.90;;;;;;4995096;28;20208;-82
2021/12/24 01:11:51;;;;;;;3.58;2.97;;;8.90;99.90;;;;;;4994409;28;20220;-83
2021/12/24 01:14:20;;;;;;;3.53;2.88;;;9.10;99.90;;;;;;4994729;28;20216;-83
2021/12/24 01:16:55;;;;;;;2.47;2.28;;;9.10;99.90;;;;;;5013300;28;20206;-83
2021/12/24 01:19:24;;;;;;;3.00;2.80;;;9.10;99.90;;;;;;5006891;28;20571;-83
2021/12/24 01:22:15;;;;;;;5.63;3.85;;;9.00;99.90;;;;;;4994094;28;20316;-83
2021/12/24 01:24:50;;;;;;;3.47;2.60;;;9.00;99.90;;;;;;5003690;28;20288;-82
2021/12/24 01:27:26;;;;;;;4.40;2.85;;;9.10;99.90;;;;;;4999225;28;20650;-82
2021/12/24 01:30:01;;;;;;;4.30;3.95;;;9.10;99.90;;;;;;4997184;28;20208;-82
2021/12/24 01:38:10;;;;;;;4.80;3.78;;;8.90;99.90;;;;;;5033666;28;20206;-82
2021/12/24 01:40:51;;;;;;;3.08;2.80;;;9.00;99.90;;;;;;5017050;28;20198;-83
2021/12/24 01:43:17;;;;;;;3.50;3.10;;;9.00;99.90;;;;;;5012459;28;20723;-83
2021/12/24 01:45:48;;;;;;;4.18;3.88;;;8.80;99.90;;;;;;5033411;28;20250;-83
2021/12/24 01:48:16;;;;;;;3.25;3.03;;;8.80;99.90;;;;;;5018496;28;20569;-83
2021/12/24 01:50:45;;;;;;;3.35;3.05;;;8.90;99.90;;;;;;5014599;28;20824;-83
2021/12/24 01:53:14;;;;;;;3.95;3.08;;;9.00;99.90;;;;;;5027683;28;20297;-83
2021/12/24 01:55:41;;;;;;;3.83;3.55;;;9.00;99.90;;;;;;5017242;28;20207;-82
2021/12/24 01:58:08;;;;;;;3.08;2.88;;;9.00;99.90;;;;;;5033308;28;20222;-82
2021/12/24 02:00:38;;;;;;;4.15;3.85;;;9.00;99.90;;;;;;5030773;28;20202;-82
2021/12/24 02:03:05;;;;;;;4.45;3.42;;;9.00;99.90;;;;;;5018002;28;20218;-83
2021/12/24 02:05:34;;;;;;;2.78;2.67;;;9.00;99.90;;;;;;5014125;28;20614;-83
2021/12/24 02:08:02;;;;;;;2.95;2.75;;;9.00;99.90;;;;;;5026870;28;20195;-83
2021/12/24 02:10:29;;;;;;;3.78;3.47;;;9.00;99.90;;;;;;5029072;28;20541;-83
2021/12/24 02:12:56;;;;;;;3.70;2.83;;;9.10;99.90;;;;;;5013203;28;20227;-82
2021/12/24 02:15:31;;;;;;;4.60;3.30;;;9.00;99.90;;;;;;5017668;28;20202;-83
2021/12/24 02:18:22;;;;;;;3.35;3.05;;;9.00;99.90;;;;;;5030002;28;20209;-83
2021/12/24 02:29:12;;;;;;;3.00;2.50;;;8.90;99.90;;;;;;5014552;28;20208;-82
2021/12/24 02:31:39;;;;;;;3.80;2.80;;;9.00;99.90;;;;;;5032780;28;20294;-83
2021/12/24 02:34:06;;;;;;;3.38;3.08;;;9.00;99.90;;;;;;5032453;28;20206;-83
2021/12/24 02:36:34;;;;;;;3.10;2.80;;;8.90;99.90;;;;;;5017819;28;20203;-83
2021/12/24 02:39:01;;;;;;;4.05;3.67;;;8.90;99.90;;;;;;5002107;28;20219;-82
2021/12/24 02:41:28;;;;;;;2.85;2.65;;;8.90;99.90;;;;;;5033590;28;20202;-82
2021/12/24 02:43:55;;;;;;;2.90;2.70;;;8.80;99.90;;;;;;5031859;28;20205;-83
2021/12/24 02:46:31;;;;;;;5.32;3.15;;;8.70;99.90;;;;;;5024356;28;20187;-82
2021/12/24 02:49:08;;;;;;;3.78;2.90;;;8.80;99.90;;;;;;5052053;28;20178;-83
2021/12/24 02:54:23;;;;;;;2.53;2.33;;;8.80;99.90;;;;;;5057366;28;20189;-81
2021/12/24 02:56:52;;;;;;;3.10;2.88;;;8.80;99.90;;;;;;5050396;28;20213;-84
2021/12/24 02:59:25;;;;;;;2.50;2.40;;;8.80;99.90;;;;;;5019410;28;20225;-83
2021/12/24 03:01:53;;;;;;;2.95;2.22;;;8.90;99.90;;;;;;5019792;28;20281;-84
2021/12/24 03:04:20;;;;;;;2.70;2.50;;;8.90;99.90;;;;;;5033156;28;20208;-84
2021/12/24 03:06:50;;;;;;;2.53;2.33;;;9.00;99.90;;;;;;5021679;28;20206;-84
2021/12/24 03:09:19;;;;;;;3.05;2.75;;;9.00;99.90;;;;;;5007435;28;20194;-84
2021/12/24 03:11:48;;;;;;;2.55;2.35;;;9.00;99.90;;;;;;5029059;28;20605;-83
2021/12/24 03:14:18;;;;;;;3.92;2.45;;;9.00;99.90;;;;;;5024143;28;20660;-83
2021/12/24 03:16:51;;;;;;;2.60;2.40;;;9.00;99.90;;;;;;5028574;28;20565;-83
2021/12/24 03:19:19;;;;;;;3.30;2.97;;;8.90;99.90;;;;;;4997352;28;20601;-83
2021/12/24 03:21:53;;;;;;;2.85;2.65;;;9.00;99.90;;;;;;5010404;28;20237;-83
2021/12/24 03:24:36;;;;;;;4.03;3.58;;;9.10;99.90;;;;;;5036298;28;20213;-83
2021/12/24 03:27:05;;;;;;;2.83;2.60;;;8.90;99.90;;;;;;5024133;28;20194;-83
2021/12/24 03:29:31;;;;;;;2.72;2.53;;;9.00;99.90;;;;;;5027609;28;20723;-83
2021/12/24 03:31:58;;;;;;;2.53;2.33;;;9.00;99.90;;;;;;5038889;28;20233;-83
2021/12/24 03:34:26;;;;;;;3.13;2.83;;;9.10;99.90;;;;;;5041245;28;20206;-83
2021/12/24 03:36:53;;;;;;;3.40;2.80;;;9.00;99.90;;;;;;5025551;28;20199;-84
2021/12/24 03:39:21;;;;;;;3.35;2.75;;;9.00;99.90;;;;;;5021980;28;20223;-84
2021/12/24 03:41:48;;;;;;;4.32;2.70;;;9.00;99.90;;;;;;5021702;28;20199;-83
2021/12/24 03:44:17;;;;;;;4.18;3.50;;;8.90;99.90;;;;;;5023048;28;20214;-83
2021/12/24 03:46:53;;;;;;;3.03;2.83;;;8.80;99.90;;;;;;5039555;28;20203;-84
2021/12/24 03:49:31;;;;;;;2.50;2.30;;;8.80;99.90;;;;;;5027303;28;20211;-84
2021/12/24 03:52:03;;;;;;;3.20;2.90;;;8.80;99.90;;;;;;5026654;28;20222;-84
2021/12/24 03:57:16;;;;;;;3.85;2.85;;;8.60;99.90;;;;;;5027876;28;20230;-84
2021/12/24 03:59:43;;;;;;;2.58;2.45;;;8.60;99.90;;;;;;5022756;28;20229;-83
2021/12/24 04:02:10;;;;;;;3.55;3.08;;;8.50;99.90;;;;;;5021154;28;20227;-83
2021/12/24 04:04:37;;;;;;;3.20;2.90;;;8.50;99.90;;;;;;5037730;28;20210;-84
2021/12/24 04:07:04;;;;;;;2.83;2.63;;;8.40;99.90;;;;;;5038655;28;20206;-84
2021/12/24 04:09:34;;;;;;;4.13;2.30;;;8.50;99.90;;;;;;5040644;28;20208;-84
2021/12/24 04:12:00;;;;;;;3.00;2.80;;;8.50;99.90;;;;;;5024981;28;20226;-83
2021/12/24 04:14:27;;;;;;;4.50;3.38;;;8.60;99.90;;;;;;5041165;28;20207;-84
2021/12/24 04:16:54;;;;;;;5.07;3.20;;;8.60;99.90;;;;;;5025790;28;20199;-84
2021/12/24 04:24:48;;;;;;;3.72;3.42;;;8.50;99.90;;;;;;5024873;28;20234;-84
2021/12/24 04:24:59;;;;;;;3.03;2.53;;;8.50;99.90;;;;;;5041232;28;20272;-83
2021/12/24 04:27:27;;;;;;;6.47;3.20;;;8.50;99.90;;;;;;5039991;28;20229;-83
2021/12/24 04:30:02;;;;;;;2.75;2.55;;;8.60;99.90;;;;;;5040172;28;20211;-84
2021/12/24 04:32:40;;;;;;;2.80;2.55;;;8.60;99.90;;;;;;5024637;28;20229;-84
2021/12/24 04:35:19;;;;;;;2.75;2.55;;;8.60;99.90;;;;;;5002119;28;20200;-83
2021/12/24 04:51:28;;;;;;;2.67;2.30;;;8.80;99.90;;;;;;5021226;28;20200;-83
2021/12/24 05:02:27;;;;;;;3.22;2.38;;;8.90;99.90;;;;;;5021509;28;20241;-83
2021/12/24 05:05:01;;;;;;;3.40;2.63;;;8.90;99.90;;;;;;5037834;28;20245;-84
2021/12/24 05:10:09;;;;;;;3.72;2.55;;;8.90;99.90;;;;;;5022441;28;20610;-84
2021/12/24 05:12:37;;;;;;;2.55;2.40;;;9.00;99.90;;;;;;5029622;28;20227;-84
2021/12/24 05:15:07;;;;;;;3.00;2.80;;;9.00;99.90;;;;;;5031611;28;20200;-84
2021/12/24 05:17:49;;;;;;;2.85;2.00;;;8.90;99.90;;;;;;5031916;28;20576;-84
2021/12/24 05:23:00;;;;;;;4.43;2.85;;;8.80;99.90;;;;;;5036157;28;20285;-84
2021/12/24 05:25:26;;;;;;;2.95;2.40;;;8.90;99.90;;;;;;5035878;28;20206;-84
2021/12/24 05:27:55;;;;;;;3.75;3.00;;;8.80;99.90;;;;;;5031723;28;20199;-83
2021/12/24 05:30:23;;;;;;;3.63;2.95;;;8.80;99.90;;;;;;5019910;28;20230;-83
2021/12/24 05:32:50;;;;;;;3.10;2.72;;;8.80;99.90;;;;;;5030318;28;20235;-84
2021/12/24 05:35:17;;;;;;;2.58;2.35;;;8.90;99.90;;;;;;5025454;28;20554;-84
2021/12/24 05:37:44;;;;;;;3.47;3.17;;;8.90;99.90;;;;;;5037784;28;20207;-83
2021/12/24 05:40:11;;;;;;;2.78;2.50;;;8.80;99.90;;;;;;5038937;28;20234;-83
2021/12/24 05:42:38;;;;;;;2.90;2.70;;;8.80;99.90;;;;;;5034267;28;20227;-83
2021/12/24 05:45:07;;;;;;;2.70;2.50;;;8.80;99.90;;;;;;5019611;28;20214;-83
2021/12/24 05:47:34;;;;;;;2.70;2.50;;;8.80;99.90;;;;;;5025218;28;20234;-83
2021/12/24 05:50:01;;;;;;;4.18;3.05;;;8.80;99.90;;;;;;5038393;28;20209;-83
2021/12/24 05:52:28;;;;;;;3.25;2.72;;;8.80;99.90;;;;;;5031229;28;20223;-83
2021/12/24 05:54:55;;;;;;;2.20;2.00;;;8.80;99.90;;;;;;5033557;28;20213;-84
2021/12/24 05:57:22;;;;;;;3.05;2.85;;;8.80;99.90;;;;;;5035243;28;20194;-83
2021/12/24 05:59:49;;;;;;;3.28;2.85;;;8.80;99.90;;;;;;5039869;28;20223;-83
2021/12/24 06:02:17;;;;;;;2.40;2.20;;;8.70;99.90;;;;;;5032012;28;20603;-84
2021/12/24 06:04:44;;;;;;;3.30;3.00;;;8.70;99.90;;;;;;5049301;28;20207;-83
2021/12/24 06:07:10;;;;;;;3.67;2.58;;;8.70;99.90;;;;;;5032473;28;20218;-83
2021/12/24 06:09:37;;;;;;;4.95;3.90;;;8.80;99.90;;;;;;5022943;28;20273;-83
2021/12/24 06:12:05;;;;;;;2.53;2.33;;;8.80;99.90;;;;;;5047583;28;20225;-84
2021/12/24 06:14:32;;;;;;;3.45;3.15;;;8.80;99.90;;;;;;5048667;28;20209;-84
2021/12/24 06:17:02;;;;;;;3.30;3.08;;;8.80;99.90;;;;;;5014925;28;20206;-83
2021/12/24 06:19:31;;;;;;;4.03;2.95;;;8.80;99.90;;;;;;5025815;28;20219;-84
2021/12/24 06:21:58;;;;;;;3.17;2.88;;;8.70;99.90;;;;;;5019626;28;20226;-84
2021/12/24 06:24:25;;;;;;;2.75;2.47;;;8.80;99.90;;;;;;5019435;28;20226;-83
2021/12/24 06:26:52;;;;;;;2.45;2.25;;;8.80;99.90;;;;;;5019913;28;20207;-84
2021/12/24 06:29:20;;;;;;;4.25;3.55;;;8.80;99.90;;;;;;5034783;28;20556;-84
2021/12/24 06:31:48;;;;;;;3.38;3.15;;;8.70;99.90;;;;;;5029467;28;20203;-84
2021/12/24 06:34:17;;;;;;;3.40;3.10;;;8.80;99.90;;;;;;5019097;28;20206;-84
2021/12/24 06:36:48;;;;;;;3.08;2.85;;;8.80;99.90;;;;;;5035865;28;20660;-84
2021/12/24 06:39:16;;;;;;;5.38;2.97;;;8.80;99.90;;;;;;5025003;28;20199;-84
2021/12/24 06:41:44;;;;;;;4.50;3.00;;;8.70;99.90;;;;;;5021465;28;20195;-84
2021/12/24 06:44:11;;;;;;;2.97;2.67;;;8.80;99.90;;;;;;5029895;28;20206;-84
2021/12/24 06:46:40;;;;;;;3.63;2.40;;;8.80;99.90;;;;;;5031377;28;20257;-83
2021/12/24 06:49:07;;;;;;;2.92;2.63;;;8.80;99.90;;;;;;5027132;28;20202;-83
2021/12/24 06:51:34;;;;;;;4.35;3.00;;;8.80;99.90;;;;;;5023763;28;20203;-84
2021/12/24 06:54:02;;;;;;;3.65;3.00;;;8.90;99.90;;;;;;5025922;28;20762;-84
2021/12/24 06:56:28;;;;;;;3.72;3.22;;;8.80;99.90;;;;;;5017888;28;20207;-84
2021/12/24 06:58:55;;;;;;;2.83;2.63;;;8.70;99.90;;;;;;5017526;28;20214;-84
2021/12/24 07:01:22;;;;;;;2.63;2.28;;;8.70;99.90;;;;;;5033444;28;20218;-83
2021/12/24 07:03:49;;;;;;;5.25;4.85;;;8.80;99.90;;;;;;5039805;28;20428;-83
2021/12/24 07:06:15;;;;;;;3.67;3.38;;;8.80;99.90;;;;;;5040015;28;20614;-83
2021/12/24 07:08:42;;;;;;;3.08;2.78;;;8.80;99.90;;;;;;5035497;28;20205;-83
2021/12/24 07:11:10;;;;;;;4.10;2.65;;;8.80;99.90;;;;;;5028907;28;20253;-83
2021/12/24 07:13:37;;;;;;;3.30;3.00;;;8.80;99.90;;;;;;5020948;28;20221;-83
2021/12/24 07:16:04;;;;;;;5.65;2.75;;;8.80;99.90;;;;;;5029875;28;20202;-83
2021/12/24 07:18:31;;;;;;;2.78;2.53;;;8.90;99.90;;;;;;5020909;28;20711;-83
2021/12/24 07:20:58;;;;;;;3.03;2.78;;;8.80;99.90;;;;;;5020895;28;20223;-83
2021/12/24 07:23:24;;;;;;;4.28;3.47;;;8.80;99.90;;;;;;5020553;28;20245;-84
2021/12/24 07:25:51;;;;;;;4.45;3.80;;;8.80;99.90;;;;;;5021732;28;20217;-84
2021/12/24 07:28:19;;;;;;;4.15;3.75;;;8.70;99.90;;;;;;5029349;28;20199;-84
2021/12/24 07:30:46;;;;;;;4.03;3.72;;;8.70;99.90;;;;;;5033993;28;20205;-84
2021/12/24 07:33:14;;;;;;;3.40;3.03;;;8.70;99.90;;;;;;5021212;28;20237;-84
2021/12/24 07:35:41;;;;;;;3.22;2.97;;;8.70;99.90;;;;;;5020413;28;20203;-84
2021/12/24 07:38:09;;;;;;;5.15;4.00;;;8.70;99.90;;;;;;5026051;28;20203;-83
2021/12/24 07:40:36;;;;;;;3.40;3.20;;;8.80;99.90;;;;;;5020442;28;20230;-83
2021/12/24 07:43:03;;;;;;;3.50;3.20;;;8.90;99.90;;;;;;5019680;28;20709;-84
2021/12/24 07:45:31;;;;;;;4.38;4.00;;;8.80;99.90;;;;;;5021217;28;20210;-84
2021/12/24 07:48:09;;;;;;;3.58;3.10;;;8.70;99.90;;;;;;5020427;28;20669;-83
2021/12/24 07:53:21;;;;;;;3.83;2.80;;;8.80;99.90;;;;;;5038696;28;20715;-84
2021/12/24 07:55:48;;;;;;;3.00;2.70;;;8.80;99.90;;;;;;5026151;28;20573;-84
2021/12/24 07:58:16;;;;;;;3.50;3.20;;;8.80;99.90;;;;;;5020707;28;20684;-83
2021/12/24 08:00:46;;;;;;;3.10;2.80;;;8.80;99.90;;;;;;5032732;28;20214;-83
2021/12/24 08:03:13;;;;;;;3.25;2.95;;;8.70;99.90;;;;;;5001689;28;20231;-83
2021/12/24 08:05:41;;;;;;;3.50;3.05;;;8.80;99.90;;;;;;5006146;28;20207;-83
2021/12/24 08:08:10;;;;;;;2.58;2.40;;;8.70;99.90;;;;;;5023642;28;20209;-83
2021/12/24 08:10:37;;;;;;;3.40;3.10;;;8.70;99.90;;;;;;5037758;28;20836;-83
2021/12/24 08:13:04;;;;;;;3.80;3.50;;;8.80;99.90;;;;;;5034333;28;20471;-83
2021/12/24 08:15:32;;;;;;;3.50;3.30;;;8.90;99.90;;;;;;5028889;28;20211;-83
2021/12/24 08:18:00;;;;;;;4.10;3.75;;;8.80;99.90;;;;;;5037781;28;20262;-83
2021/12/24 08:20:32;;;;;;;3.20;2.90;;;8.80;99.90;;;;;;5018950;28;20235;-83
2021/12/24 08:22:59;;;;;;;5.43;3.53;;;8.80;99.90;;;;;;5019647;28;20231;-83
2021/12/24 08:25:26;;;;;;;3.95;3.63;;;8.70;99.90;;;;;;5022303;28;20210;-83
2021/12/24 08:27:54;;;;;;;3.40;3.10;;;8.70;99.90;;;;;;5020941;28;20200;-83
2021/12/24 08:30:21;;;;;;;3.55;2.97;;;8.70;99.90;;;;;;5018029;28;20609;-83
2021/12/24 08:32:47;;;;;;;3.70;3.50;;;8.90;99.90;;;;;;5022234;28;20250;-83
2021/12/24 08:35:20;;;;;;;3.42;3.13;;;8.80;99.90;;;;;;5017863;28;20290;-84
2021/12/24 08:37:47;;;;;;;3.10;2.90;;;8.80;99.90;;;;;;5019454;28;20203;-84
2021/12/24 08:57:51;;;;;;;3.75;3.42;;;9.10;99.90;;;;;;4867266;29;20609;-85
2021/12/24 09:03:37;;;;;;;2.80;2.60;;;9.20;99.90;;;;;;4991598;23;20242;-83
2021/12/24 09:06:04;;;;;;;4.22;3.83;;;9.10;99.90;;;;;;4984162;28;20212;-83
2021/12/24 09:08:31;;;;;;;3.72;3.42;;;9.00;99.90;;;;;;4998255;28;20206;-82
2021/12/24 09:10:58;;;;;;;5.18;3.08;;;9.00;99.90;;;;;;4999827;28;20239;-82
2021/12/24 09:13:25;;;;;;;3.25;3.03;;;8.90;99.90;;;;;;4999572;28;20228;-83
2021/12/24 09:15:53;;;;;;;4.13;3.72;;;8.90;99.90;;;;;;4999660;28;20203;-83
2021/12/24 09:18:21;;;;;;;5.15;3.63;;;8.80;99.90;;;;;;4999324;28;20227;-83
2021/12/24 09:20:48;;;;;;;3.80;3.40;;;8.70;99.90;;;;;;4999081;28;20212;-83
2021/12/24 09:23:15;;;;;;;4.00;3.67;;;8.80;99.90;;;;;;4997588;28;20244;-83
2021/12/24 09:25:42;;;;;;;4.40;4.00;;;8.70;99.90;;;;;;4999248;28;20209;-83
2021/12/24 09:28:09;;;;;;;5.43;4.63;;;8.70;99.90;;;;;;4998995;28;20212;-83
2021/12/24 09:30:36;;;;;;;3.38;3.08;;;8.70;99.90;;;;;;4998842;28;20232;-83
2021/12/24 09:33:05;;;;;;;4.43;4.05;;;8.60;99.90;;;;;;4999026;28;20234;-83
2021/12/24 09:35:33;;;;;;;4.55;4.25;;;8.70;99.90;;;;;;4999933;28;20218;-83
2021/12/24 09:38:00;;;;;;;4.57;4.15;;;8.70;99.90;;;;;;4999570;28;20218;-83
2021/12/24 09:40:28;;;;;;;5.38;5.00;;;8.70;99.90;;;;;;4999424;28;20211;-82
2021/12/24 09:42:55;;;;;;;4.93;4.30;;;8.60;99.90;;;;;;5000016;28;20227;-82
2021/12/24 09:45:21;;;;;;;4.10;3.80;;;8.60;99.90;;;;;;5003620;28;20587;-82
2021/12/24 09:47:48;;;;;;;4.90;4.47;;;8.60;99.90;;;;;;5002348;28;20207;-82
2021/12/24 09:50:20;;;;;;;4.15;3.60;;;8.50;99.90;;;;;;5002279;28;20211;-82
2021/12/24 09:52:49;;;;;;;5.65;4.38;;;8.50;99.90;;;;;;5002337;28;20242;-81
2021/12/24 09:55:18;;;;;;;5.93;5.32;;;8.60;99.90;;;;;;5001210;28;20548;-81
2021/12/24 09:57:45;;;;;;;6.22;5.07;;;8.60;99.90;;;;;;5000856;28;20216;-81
2021/12/24 10:00:14;;;;;;;4.68;3.72;;;8.50;99.90;;;;;;5000580;28;20223;-81
2021/12/24 10:02:44;;;;;;;4.45;4.05;;;8.50;99.90;;;;;;5009645;28;20243;-81
2021/12/24 10:05:28;;;;;;;6.45;4.85;;;8.50;99.90;;;;;;5007562;28;20230;-83
2021/12/24 10:08:00;;;;;;;4.15;3.83;;;8.40;99.90;;;;;;5009642;28;20203;-83
2021/12/24 10:10:29;;;;;;;4.32;3.92;;;8.40;99.90;;;;;;5004163;28;20212;-83
2021/12/24 10:12:58;;;;;;;6.45;4.13;;;8.30;99.90;;;;;;5024126;28;20290;-84
2021/12/24 10:15:25;;;;;;;4.43;3.88;;;8.50;99.90;;;;;;5021126;28;20203;-83
2021/12/24 10:17:51;;;;;;;4.97;3.75;;;8.40;99.90;;;;;;5025073;28;20207;-82
2021/12/24 10:20:21;;;;;;;5.82;4.70;;;8.30;99.90;;;;;;5020144;28;20207;-82
2021/12/24 10:22:52;;;;;;;4.85;4.45;;;8.30;99.90;;;;;;4998642;28;20341;-83
2021/12/24 10:25:27;;;;;;;4.38;3.97;;;8.40;99.90;;;;;;5003392;28;20203;-84
2021/12/24 10:27:54;;;;;;;4.13;3.72;;;8.40;99.90;;;;;;5000184;28;20255;-83
2021/12/24 10:30:26;;;;;;;4.10;3.70;;;8.30;99.90;;;;;;5001007;28;20244;-84
2021/12/24 10:32:56;;;;;;;4.13;3.83;;;8.40;99.90;;;;;;5017692;28;20223;-84
2021/12/24 10:35:27;;;;;;;3.15;2.90;;;8.50;99.90;;;;;;4996686;28;20219;-83
2021/12/24 10:38:19;;;;;;;4.60;4.05;;;8.50;99.90;;;;;;4997679;28;20235;-84
2021/12/24 10:40:51;;;;;;;6.25;3.95;;;8.50;99.90;;;;;;4991813;28;20263;-82
2021/12/24 10:43:24;;;;;;;4.75;4.35;;;8.50;99.90;;;;;;5011813;28;20228;-84
2021/12/24 10:46:09;;;;;;;4.75;4.32;;;8.50;99.90;;;;;;5008122;28;20242;-84
2021/12/24 10:48:35;;;;;;;4.05;3.75;;;8.50;99.90;;;;;;5018701;28;20248;-84
2021/12/24 10:51:06;;;;;;;4.18;3.85;;;8.50;99.90;;;;;;5019013;28;20246;-84
2021/12/24 10:54:04;;;;;;;4.43;4.03;;;8.40;99.90;;;;;;5021676;28;20230;-83
2021/12/24 10:56:30;;;;;;;6.60;3.80;;;8.40;99.90;;;;;;5018322;28;20621;-84
2021/12/24 10:58:57;;;;;;;4.38;3.97;;;8.50;99.90;;;;;;5013123;28;20215;-83
2021/12/24 11:01:24;;;;;;;3.22;2.90;;;8.40;99.90;;;;;;5001132;28;20196;-84
2021/12/24 11:03:51;;;;;;;4.03;3.45;;;8.40;99.90;;;;;;5018294;28;20239;-83
2021/12/24 11:06:21;;;;;;;4.70;4.30;;;8.50;99.90;;;;;;5011844;28;20204;-84
2021/12/24 11:08:54;;;;;;;4.15;3.50;;;8.50;99.90;;;;;;4999303;28;20214;-83
2021/12/24 11:11:21;;;;;;;4.50;3.55;;;8.40;99.90;;;;;;4996290;28;20233;-84
2021/12/24 11:13:49;;;;;;;3.03;2.80;;;8.40;99.90;;;;;;4995481;28;20230;-84
2021/12/24 11:16:17;;;;;;;3.10;2.90;;;8.50;99.90;;;;;;4997358;28;20200;-84
2021/12/24 11:18:46;;;;;;;4.47;3.85;;;8.50;99.90;;;;;;5000338;28;20226;-84
2021/12/24 11:21:19;;;;;;;3.35;3.15;;;8.50;99.90;;;;;;4996524;28;20235;-83
2021/12/24 11:24:17;;;;;;;3.50;3.00;;;8.40;99.90;;;;;;4998189;28;20239;-85
2021/12/24 11:27:10;;;;;;;3.67;3.38;;;8.40;99.90;;;;;;5003874;28;20204;-86
2021/12/24 11:29:42;;;;;;;3.53;3.28;;;8.40;99.90;;;;;;4995248;28;20215;-84
2021/12/24 11:32:28;;;;;;;5.57;4.95;;;8.40;99.90;;;;;;5011380;28;20250;-85
2021/12/24 11:34:56;;;;;;;4.18;3.78;;;8.40;99.90;;;;;;5020647;28;20207;-85
2021/12/24 11:37:23;;;;;;;2.63;2.45;;;8.30;99.90;;;;;;5016738;28;20207;-83
2021/12/24 11:39:51;;;;;;;3.10;2.90;;;8.40;99.90;;;;;;5000369;28;20196;-79
2021/12/24 11:55:21;;;;;;;4.30;4.00;;;8.40;99.90;;;;;;4989644;28;20213;-82
2021/12/24 11:57:53;;;;;;;3.35;3.15;;;8.50;99.90;;;;;;4982651;28;20601;-83
2021/12/24 12:00:29;;;;;;;4.43;3.15;;;8.60;99.90;;;;;;5001826;28;20207;-82
2021/12/24 12:02:56;;;;;;;3.17;2.88;;;8.70;99.90;;;;;;5021386;28;20239;-82
2021/12/24 12:05:28;;;;;;;2.90;2.63;;;8.80;99.90;;;;;;5016923;28;20195;-81
2021/12/24 12:08:32;;;;;;;2.55;2.40;;;8.70;99.90;;;;;;5000448;28;20686;-81
2021/12/24 12:11:01;;;;;;;3.15;2.85;;;8.70;99.90;;;;;;4999362;28;20210;-81
2021/12/24 12:13:43;;;;;;;3.13;2.65;;;8.90;99.90;;;;;;5016203;28;20226;-82
2021/12/24 12:16:13;;;;;;;2.75;2.50;;;8.90;99.90;;;;;;5008804;28;20693;-81
2021/12/24 12:18:47;;;;;;;3.25;3.05;;;8.90;99.90;;;;;;4999460;28;20219;-81
2021/12/24 12:21:18;;;;;;;3.25;3.05;;;8.90;99.90;;;;;;5010516;28;20204;-81
2021/12/24 12:24:56;;;;;;;2.30;2.10;;;9.20;99.90;;;;;;5021407;28;20239;-83
2021/12/24 12:26:42;;;;;;;2.70;2.50;;;9.30;99.90;;;;;;5009088;28;20201;-82
2021/12/24 12:29:24;;;;;;;2.30;2.20;;;9.20;99.90;;;;;;5021117;28;20207;-83
2021/12/24 12:31:55;;;;;;;1.83;1.73;;;9.20;99.90;;;;;;5004512;28;20228;-81
2021/12/24 12:34:51;;;;;;;2.50;2.30;;;9.30;99.90;;;;;;4998091;28;20589;-81
2021/12/24 12:37:20;;;;;;;2.38;2.15;;;9.30;99.90;;;;;;5000356;28;20211;-80
2021/12/24 12:39:48;;;;;;;1.60;1.50;;;9.30;99.90;;;;;;5000030;28;20212;-82
2021/12/24 12:42:18;;;;;;;2.38;2.00;;;9.40;99.90;;;;;;5000497;28;20212;-82
2021/12/24 12:44:47;;;;;;;2.70;2.35;;;9.40;99.90;;;;;;5006690;28;20262;-79
2021/12/24 12:47:16;;;;;;;3.35;3.15;;;9.50;99.90;;;;;;4999680;28;20292;-80
2021/12/24 12:49:44;;;;;;;2.72;2.20;;;9.50;99.90;;;;;;4998867;28;20250;-82
2021/12/24 12:52:21;;;;;;;2.10;2.00;;;9.50;99.90;;;;;;4995480;28;20612;-84
2021/12/24 12:54:49;;;;;;;1.80;1.70;;;9.40;99.90;;;;;;5006525;28;20212;-83
2021/12/24 12:57:29;;;;;;;1.90;1.77;;;9.50;99.90;;;;;;5015160;28;20211;-84
2021/12/24 13:00:20;;;;;;;2.22;1.80;;;9.50;99.90;;;;;;4996340;28;20214;-82
2021/12/24 13:03:07;;;;;;;1.40;1.38;;;9.50;99.90;;;;;;5015433;28;20285;-81
2021/12/24 13:05:50;;;;;;;1.95;1.85;;;9.60;99.90;;;;;;5008781;28;20224;-80
2021/12/24 13:08:37;;;;;;;1.77;1.70;;;9.60;99.90;;;;;;4976765;28;20224;-84
2021/12/24 13:11:06;;;;;;;2.63;2.42;;;9.50;99.90;;;;;;4996930;28;20203;-83
2021/12/24 13:13:44;;;;;;;2.20;2.00;;;9.60;99.90;;;;;;5006915;28;20246;-80
2021/12/24 13:16:16;;;;;;;1.75;1.65;;;9.60;99.90;;;;;;5017577;28;20203;-80
2021/12/24 13:18:47;;;;;;;1.55;1.45;;;9.60;99.90;;;;;;5005211;28;20246;-81
2021/12/24 13:23:58;;;;;;;1.60;1.50;;;9.50;99.90;;;;;;5017071;28;20207;-81
2021/12/24 13:26:25;;;;;;;1.75;1.65;;;9.50;99.90;;;;;;5031177;28;20236;-81
2021/12/24 13:29:01;;;;;;;2.13;2.03;;;9.40;99.90;;;;;;5026358;28;20198;-80
2021/12/24 13:31:30;;;;;;;2.15;1.95;;;9.50;99.90;;;;;;4989011;28;20198;-81
2021/12/24 13:33:57;;;;;;;2.22;2.13;;;9.50;99.90;;;;;;4994577;28;20215;-80
2021/12/24 13:36:26;;;;;;;1.52;1.42;;;9.50;99.90;;;;;;5000601;28;20193;-79
2021/12/24 13:38:53;;;;;;;1.67;1.58;;;9.50;99.90;;;;;;4997043;28;20304;-79
2021/12/24 13:41:25;;;;;;;1.70;1.60;;;9.50;99.90;;;;;;5014904;28;20212;-80
2021/12/24 13:43:52;;;;;;;2.30;2.10;;;9.40;99.90;;;;;;5015493;28;20276;-82
2021/12/24 13:46:21;;;;;;;2.00;1.90;;;9.50;99.90;;;;;;5025663;28;20213;-81
2021/12/24 13:49:14;;;;;;;2.42;2.22;;;9.50;99.90;;;;;;5021696;28;20211;-82
2021/12/24 13:54:35;;;;;;;2.30;2.10;;;9.40;99.90;;;;;;5001599;28;20215;-82
2021/12/24 13:57:04;;;;;;;2.38;2.15;;;9.30;99.90;;;;;;5029117;28;20200;-80
2021/12/24 13:59:32;;;;;;;1.75;1.65;;;9.40;99.90;;;;;;5029755;28;20290;-83
2021/12/24 14:02:01;;;;;;;2.55;1.77;;;9.40;99.90;;;;;;5017839;28;20240;-84
2021/12/24 14:04:30;;;;;;;1.90;1.80;;;9.40;99.90;;;;;;5031059;28;20192;-81
2021/12/24 14:06:59;;;;;;;2.35;2.15;;;9.30;99.90;;;;;;5030205;28;20257;-83
2021/12/24 14:09:33;;;;;;;1.70;1.60;;;9.30;99.90;;;;;;5022025;28;20218;-83
2021/12/24 14:12:02;;;;;;;2.10;1.73;;;9.30;99.90;;;;;;5031680;28;20241;-82
2021/12/24 14:14:42;;;;;;;2.35;2.25;;;9.40;99.90;;;;;;5029493;28;20209;-83
2021/12/24 14:17:37;;;;;;;1.85;1.65;;;9.40;99.90;;;;;;5013146;28;20199;-81
2021/12/24 14:20:15;;;;;;;1.65;1.55;;;9.40;99.90;;;;;;4995382;28;20199;-82
2021/12/24 14:22:43;;;;;;;2.10;2.00;;;9.30;99.90;;;;;;4994986;28;20283;-81
2021/12/24 14:25:15;;;;;;;2.53;2.42;;;9.40;99.90;;;;;;4995307;28;20212;-82
2021/12/24 14:27:48;;;;;;;1.98;1.52;;;9.40;99.90;;;;;;4976016;28;20667;-81
2021/12/24 14:30:18;;;;;;;2.08;1.50;;;9.40;99.90;;;;;;4976401;28;20557;-81
2021/12/24 14:32:49;;;;;;;1.80;1.70;;;9.30;99.90;;;;;;4981813;28;20232;-83
2021/12/24 14:35:19;;;;;;;2.25;2.00;;;9.40;99.90;;;;;;4992932;28;20194;-81
2021/12/24 14:37:55;;;;;;;1.50;1.40;;;9.40;99.90;;;;;;4995603;28;20197;-83
2021/12/24 14:40:22;;;;;;;2.03;1.92;;;9.40;99.90;;;;;;4985483;28;20204;-82
2021/12/24 14:42:51;;;;;;;2.35;1.80;;;9.50;99.90;;;;;;4992196;28;20224;-82
2021/12/24 14:45:21;;;;;;;2.70;1.95;;;9.40;99.90;;;;;;4991959;28;20240;-82
2021/12/24 14:48:03;;;;;;;1.85;1.38;;;9.60;99.90;;;;;;4983327;28;20196;-82
2021/12/24 14:50:31;;;;;;;1.80;1.70;;;9.50;99.90;;;;;;4992769;28;20217;-81
2021/12/24 14:53:17;;;;;;;1.92;1.77;;;9.50;99.90;;;;;;4993479;28;20234;-82
2021/12/24 14:55:49;;;;;;;2.50;2.30;;;9.50;99.90;;;;;;4987986;28;20217;-82
2021/12/24 14:58:31;;;;;;;2.55;2.35;;;9.50;99.90;;;;;;4991410;28;20235;-78
2021/12/24 15:01:00;;;;;;;1.92;1.75;;;9.60;99.90;;;;;;4997215;28;20189;-78